Time;durP1;ratioP1;P1;durP2;ratioP2;P2;SDS_P1;SDS_P2;PMS_P1;PMS_P2;Temp;Humidity;BMP_temperature;BMP_pressure;BME280_temperature;BME280_humidity;BME280_pressure;Samples;Min_cycle;Max_cycle;Signal;HPM_P1;HPM_P2
2021/06/01 00:01:47;;;;;;;2.37;2.10;;;15.80;24.50;;;;;;10429317;28;20221;-78
2021/06/01 00:06:50;;;;;;;2.77;2.57;;;15.70;24.20;;;;;;10426767;28;20328;-77
2021/06/01 00:11:54;;;;;;;5.00;3.00;;;15.70;24.10;;;;;;10426320;28;20309;-77
2021/06/01 00:16:57;;;;;;;3.00;2.80;;;15.60;24.50;;;;;;10426890;28;20226;-77
2021/06/01 00:21:59;;;;;;;2.80;2.60;;;15.50;24.10;;;;;;10423297;28;20231;-77
2021/06/01 00:27:04;;;;;;;3.00;2.80;;;15.30;24.20;;;;;;10421571;28;20873;-77
2021/06/01 00:32:08;;;;;;;2.70;2.40;;;15.10;24.90;;;;;;10433130;28;20319;-77
2021/06/01 00:37:11;;;;;;;3.00;2.80;;;15.00;24.70;;;;;;10436535;28;20367;-78
2021/06/01 00:42:15;;;;;;;3.40;3.13;;;15.00;24.70;;;;;;10420656;28;20229;-77
2021/06/01 00:47:18;;;;;;;3.40;3.20;;;14.90;25.10;;;;;;10426287;28;20239;-77
2021/06/01 00:52:20;;;;;;;3.63;3.20;;;14.80;25.00;;;;;;10424301;28;20241;-77
2021/06/01 00:57:24;;;;;;;3.30;3.10;;;14.70;25.00;;;;;;10431957;28;20235;-77
2021/06/01 01:02:27;;;;;;;3.10;2.83;;;14.50;25.50;;;;;;10438912;28;20251;-77
2021/06/01 01:07:37;;;;;;;3.10;2.90;;;14.30;25.40;;;;;;10420807;28;20232;-77
2021/06/01 01:12:47;;;;;;;2.60;2.40;;;14.20;25.60;;;;;;10426523;28;20255;-78
2021/06/01 01:17:53;;;;;;;2.77;2.57;;;14.20;26.30;;;;;;10422509;28;20270;-77
2021/06/01 01:22:59;;;;;;;2.70;2.50;;;14.20;26.20;;;;;;10427208;28;20225;-77
2021/06/01 01:28:09;;;;;;;3.10;2.90;;;14.20;25.80;;;;;;10432413;28;20227;-77
2021/06/01 01:33:20;;;;;;;2.97;2.77;;;14.20;26.30;;;;;;10421554;28;20605;-77
2021/06/01 01:38:24;;;;;;;2.77;2.57;;;14.10;26.50;;;;;;10425400;28;20279;-78
2021/06/01 01:43:30;;;;;;;2.73;2.53;;;13.90;25.80;;;;;;10422501;28;20239;-77
2021/06/01 01:53:58;;;;;;;3.37;3.10;;;13.90;26.10;;;;;;10423175;28;21006;-77
2021/06/01 01:59:01;;;;;;;3.07;2.70;;;13.80;26.00;;;;;;10428215;28;20315;-77
2021/06/01 02:04:06;;;;;;;3.10;2.90;;;13.80;26.00;;;;;;10424237;28;20305;-77
2021/06/01 02:09:10;;;;;;;2.63;2.43;;;13.80;26.20;;;;;;10421363;28;20235;-77
2021/06/01 02:14:13;;;;;;;2.80;2.60;;;13.70;26.00;;;;;;10420698;28;20261;-77
2021/06/01 02:19:19;;;;;;;2.10;2.00;;;13.70;26.00;;;;;;10423023;28;20231;-77
2021/06/01 02:24:28;;;;;;;2.63;2.47;;;13.70;26.40;;;;;;10431938;28;20324;-76
2021/06/01 02:29:38;;;;;;;2.70;2.50;;;13.60;26.50;;;;;;10419945;28;20313;-77
2021/06/01 02:34:44;;;;;;;2.97;2.77;;;13.60;26.60;;;;;;10427678;28;20233;-77
2021/06/01 02:39:48;;;;;;;3.20;3.00;;;13.60;26.60;;;;;;10431554;28;20598;-77
2021/06/01 02:44:51;;;;;;;2.73;2.53;;;13.60;26.40;;;;;;10433496;28;20235;-77
2021/06/01 02:49:56;;;;;;;2.40;2.30;;;13.50;26.20;;;;;;10427482;28;20235;-77
2021/06/01 02:55:00;;;;;;;3.07;2.77;;;13.50;26.50;;;;;;10430030;28;20305;-77
2021/06/01 03:00:04;;;;;;;2.60;2.40;;;13.50;26.30;;;;;;10426668;28;20301;-77
2021/06/01 03:05:10;;;;;;;3.37;3.03;;;13.40;26.30;;;;;;10433000;28;20308;-77
2021/06/01 03:10:13;;;;;;;2.70;2.50;;;13.40;26.50;;;;;;10430916;28;20317;-77
2021/06/01 03:15:17;;;;;;;2.87;2.67;;;13.30;26.30;;;;;;10434326;28;20328;-77
2021/06/01 03:20:21;;;;;;;2.67;2.47;;;13.20;26.30;;;;;;10427724;28;20341;-77
2021/06/01 03:25:24;;;;;;;2.97;2.70;;;13.20;26.60;;;;;;10430086;28;20308;-77
2021/06/01 03:30:28;;;;;;;3.10;2.90;;;13.20;26.50;;;;;;10422745;28;20725;-78
2021/06/01 03:35:32;;;;;;;5.10;3.47;;;13.10;26.80;;;;;;10421526;28;20751;-78
2021/06/01 03:40:36;;;;;;;3.10;2.90;;;13.10;27.00;;;;;;10432111;28;20234;-78
2021/06/01 03:45:38;;;;;;;3.30;2.60;;;13.00;26.60;;;;;;10419173;28;20222;-78
2021/06/01 03:50:43;;;;;;;3.10;2.90;;;13.00;26.80;;;;;;10427036;28;20233;-78
2021/06/01 03:55:45;;;;;;;2.70;2.50;;;12.90;26.90;;;;;;10425732;28;20223;-78
2021/06/01 04:00:48;;;;;;;5.30;3.80;;;12.80;26.70;;;;;;10428054;28;20300;-78
2021/06/01 04:05:52;;;;;;;3.37;3.07;;;12.60;26.70;;;;;;10432399;28;20213;-77
2021/06/01 04:10:55;;;;;;;3.50;3.20;;;12.50;27.20;;;;;;10430264;28;20641;-77
2021/06/01 04:15:58;;;;;;;3.87;3.47;;;12.40;27.20;;;;;;10432789;28;20247;-77
2021/06/01 04:21:02;;;;;;;3.47;3.17;;;12.30;27.50;;;;;;10425444;28;20232;-77
2021/06/01 04:26:05;;;;;;;3.20;2.90;;;12.30;28.00;;;;;;10425683;28;20301;-77
2021/06/01 04:31:08;;;;;;;3.30;3.00;;;12.30;27.80;;;;;;10428873;28;20234;-77
2021/06/01 04:36:13;;;;;;;3.10;2.90;;;12.30;27.90;;;;;;10426274;28;20282;-78
2021/06/01 04:41:15;;;;;;;3.57;3.27;;;12.40;28.50;;;;;;10423159;28;20233;-78
2021/06/01 04:46:18;;;;;;;3.90;3.60;;;12.50;28.30;;;;;;10424749;28;20232;-78
2021/06/01 04:51:23;;;;;;;3.30;3.10;;;12.50;28.50;;;;;;10425811;28;20240;-78
2021/06/01 04:56:27;;;;;;;3.43;3.13;;;12.60;29.10;;;;;;10433262;28;20225;-79
2021/06/01 05:01:30;;;;;;;3.80;3.50;;;12.70;28.80;;;;;;10426312;28;20969;-78
2021/06/01 05:06:34;;;;;;;4.00;3.60;;;12.80;29.00;;;;;;10421775;28;20308;-78
2021/06/01 05:11:37;;;;;;;3.73;3.43;;;12.90;29.40;;;;;;10429821;28;20228;-78
2021/06/01 05:16:40;;;;;;;3.77;3.47;;;13.00;29.00;;;;;;10424275;28;20225;-78
2021/06/01 05:21:44;;;;;;;3.60;3.40;;;13.20;29.20;;;;;;10427135;28;20577;-79
2021/06/01 05:26:46;;;;;;;3.67;3.37;;;13.30;29.70;;;;;;10425293;28;20228;-78
2021/06/01 05:31:56;;;;;;;3.80;3.50;;;13.40;29.50;;;;;;10417787;28;20313;-78
2021/06/01 05:37:01;;;;;;;3.97;3.67;;;13.60;29.70;;;;;;10427096;28;20249;-78
2021/06/01 05:42:04;;;;;;;4.40;4.00;;;13.70;30.20;;;;;;10433242;28;20308;-78
2021/06/01 05:47:07;;;;;;;4.10;3.80;;;13.90;30.00;;;;;;10433403;28;20237;-78
2021/06/01 05:52:11;;;;;;;3.77;3.47;;;14.10;30.00;;;;;;10425876;28;20224;-78
2021/06/01 05:57:14;;;;;;;3.83;3.50;;;14.20;30.40;;;;;;10416244;28;20253;-78
2021/06/01 06:02:17;;;;;;;3.43;3.23;;;14.40;30.10;;;;;;10429159;28;20589;-78
2021/06/01 06:07:21;;;;;;;4.47;3.90;;;14.60;30.20;;;;;;10428972;28;20624;-78
2021/06/01 06:12:24;;;;;;;4.10;3.70;;;14.80;31.00;;;;;;10434444;28;20229;-78
2021/06/01 06:17:39;;;;;;;3.80;3.50;;;15.10;30.30;;;;;;10428547;28;20343;-78
2021/06/01 06:22:43;;;;;;;3.90;3.50;;;15.30;31.50;;;;;;10432748;28;20316;-78
2021/06/01 06:27:46;;;;;;;3.40;3.10;;;15.50;30.90;;;;;;10437398;28;20236;-78
2021/06/01 06:32:49;;;;;;;4.57;3.20;;;15.70;30.50;;;;;;10428724;28;20982;-78
2021/06/01 06:37:54;;;;;;;3.53;3.27;;;15.90;30.80;;;;;;10429598;28;20253;-78
2021/06/01 06:42:57;;;;;;;3.07;2.87;;;16.20;31.50;;;;;;10420849;28;20299;-79
2021/06/01 06:48:06;;;;;;;3.87;3.30;;;16.50;31.00;;;;;;10414740;28;20291;-78
2021/06/01 06:53:10;;;;;;;3.30;3.10;;;16.70;31.10;;;;;;10416669;28;20689;-78
2021/06/01 06:58:13;;;;;;;3.07;2.87;;;17.00;31.20;;;;;;10422645;28;20240;-79
2021/06/01 07:03:16;;;;;;;2.97;2.77;;;17.30;30.60;;;;;;10432245;28;20771;-78
2021/06/01 07:08:20;;;;;;;3.00;2.70;;;17.60;30.00;;;;;;10415028;28;20256;-78
2021/06/01 07:13:26;;;;;;;5.73;2.80;;;17.90;30.00;;;;;;10437054;28;20312;-78
2021/06/01 07:18:30;;;;;;;2.57;2.47;;;18.20;29.10;;;;;;10439266;28;20237;-78
2021/06/01 07:23:35;;;;;;;2.87;2.67;;;18.50;29.30;;;;;;10435804;28;20225;-78
2021/06/01 07:28:38;;;;;;;3.07;2.77;;;18.70;28.70;;;;;;10432192;28;20232;-76
2021/06/01 07:33:41;;;;;;;3.27;2.97;;;19.10;28.60;;;;;;10427227;28;20230;-76
2021/06/01 07:38:45;;;;;;;2.70;2.50;;;19.40;28.50;;;;;;10421377;28;20632;-75
2021/06/01 07:43:48;;;;;;;2.80;2.60;;;19.70;27.70;;;;;;10426609;28;20231;-75
2021/06/01 07:48:51;;;;;;;2.70;2.50;;;19.90;27.70;;;;;;10424158;28;20227;-75
2021/06/01 07:53:56;;;;;;;2.50;2.30;;;20.20;27.20;;;;;;10431608;28;20251;-76
2021/06/01 07:58:59;;;;;;;2.77;2.57;;;20.40;26.60;;;;;;10427764;28;20229;-76
2021/06/01 08:04:01;;;;;;;2.90;2.70;;;20.60;26.60;;;;;;10429257;28;20988;-76
2021/06/01 08:09:07;;;;;;;3.10;2.90;;;20.80;26.50;;;;;;10430650;28;20231;-76
2021/06/01 08:14:10;;;;;;;3.47;2.80;;;21.10;26.10;;;;;;10432672;28;20320;-76
2021/06/01 08:19:14;;;;;;;2.50;2.30;;;21.30;26.20;;;;;;10424945;28;20233;-76
2021/06/01 08:24:19;;;;;;;2.50;2.30;;;21.50;25.70;;;;;;10433415;28;20316;-76
2021/06/01 08:29:21;;;;;;;3.13;2.20;;;21.70;24.80;;;;;;10426778;28;20237;-76
2021/06/01 08:34:24;;;;;;;2.53;2.33;;;21.80;25.10;;;;;;10430762;28;20235;-79
2021/06/01 08:39:28;;;;;;;2.50;2.30;;;22.00;24.80;;;;;;10426132;28;20247;-79
2021/06/01 08:44:31;;;;;;;2.37;2.27;;;22.10;24.60;;;;;;10432036;28;20228;-79
2021/06/01 08:49:33;;;;;;;2.40;2.20;;;22.30;24.40;;;;;;10419363;28;20229;-76
2021/06/01 08:54:38;;;;;;;2.40;2.30;;;22.50;24.40;;;;;;10424479;28;20897;-76
2021/06/01 08:59:41;;;;;;;2.63;2.43;;;22.60;24.00;;;;;;10421496;28;20221;-76
2021/06/01 09:04:48;;;;;;;2.80;2.60;;;22.80;23.80;;;;;;10416744;28;20230;-74
2021/06/01 09:10:22;;;;;;;2.63;2.47;;;22.90;23.70;;;;;;10426891;28;20589;-76
2021/06/01 09:15:40;;;;;;;2.83;2.17;;;23.00;23.00;;;;;;10418572;28;20222;-77
2021/06/01 09:26:01;;;;;;;3.17;2.20;;;23.20;23.20;;;;;;10414266;28;20221;-77
2021/06/01 09:31:04;;;;;;;2.63;2.20;;;23.20;22.60;;;;;;10420387;28;20224;-76
2021/06/01 09:36:07;;;;;;;3.00;2.37;;;23.30;23.30;;;;;;10430655;28;20229;-78
2021/06/01 09:41:13;;;;;;;2.10;2.00;;;23.50;23.00;;;;;;10436495;28;20297;-78
2021/06/01 09:46:20;;;;;;;3.33;2.27;;;23.70;22.60;;;;;;10433445;28;20606;-78
2021/06/01 09:51:25;;;;;;;2.67;2.20;;;23.90;21.70;;;;;;10430799;28;20238;-77
2021/06/01 09:56:32;;;;;;;3.10;2.60;;;24.00;21.80;;;;;;10421052;28;20229;-77
2021/06/01 10:01:34;;;;;;;2.47;2.20;;;24.10;21.60;;;;;;10420224;28;20229;-77
2021/06/01 10:06:37;;;;;;;2.60;2.40;;;24.20;21.70;;;;;;10425442;28;20224;-77
2021/06/01 10:11:53;;;;;;;2.40;2.20;;;24.20;21.40;;;;;;10424870;28;20228;-77
2021/06/01 10:16:56;;;;;;;2.40;2.20;;;24.20;19.80;;;;;;10429884;28;20228;-81
2021/06/01 10:21:59;;;;;;;2.07;1.90;;;24.10;21.30;;;;;;10434042;28;20312;-81
2021/06/01 10:27:06;;;;;;;2.13;1.93;;;24.20;21.30;;;;;;10432494;28;20224;-80
2021/06/01 10:32:09;;;;;;;3.17;2.10;;;24.20;20.70;;;;;;10417772;28;20240;-81
2021/06/01 10:42:41;;;;;;;2.50;2.30;;;24.50;21.10;;;;;;10434819;28;20335;-81
2021/06/01 10:53:07;;;;;;;2.23;2.00;;;24.70;20.10;;;;;;10435417;28;20226;-82
2021/06/01 10:58:11;;;;;;;2.40;2.20;;;24.70;20.30;;;;;;10440413;28;20229;-82
2021/06/01 11:03:16;;;;;;;2.10;2.00;;;24.80;20.50;;;;;;10430136;28;20248;-81
2021/06/01 11:08:34;;;;;;;2.00;1.90;;;24.90;19.90;;;;;;10423473;28;20213;-76
2021/06/01 11:13:38;;;;;;;1.97;1.87;;;25.00;19.30;;;;;;10429814;28;20236;-75
2021/06/01 11:18:47;;;;;;;1.63;1.53;;;25.00;19.60;;;;;;10420202;28;20239;-75
2021/06/01 11:35:22;;;;;;;1.70;1.60;;;25.10;18.60;;;;;;10426594;28;20232;-76
2021/06/01 11:40:30;;;;;;;2.53;1.77;;;25.20;18.70;;;;;;10428708;28;20605;-76
2021/06/01 11:45:46;;;;;;;2.07;1.87;;;25.20;19.00;;;;;;10423496;28;20252;-76
2021/06/01 11:51:11;;;;;;;3.20;1.80;;;25.20;18.70;;;;;;10428235;28;20320;-77
2021/06/01 11:56:15;;;;;;;1.80;1.70;;;25.20;17.40;;;;;;10426954;28;20216;-77
2021/06/01 12:12:39;;;;;;;1.93;1.83;;;25.40;18.70;;;;;;10427728;28;20225;-76
2021/06/01 12:17:47;;;;;;;2.07;1.60;;;25.40;17.90;;;;;;10422942;28;20237;-76
2021/06/01 12:22:51;;;;;;;2.27;2.17;;;25.40;17.70;;;;;;10417403;28;20229;-76
2021/06/01 12:28:04;;;;;;;2.07;1.87;;;25.50;18.30;;;;;;10423134;28;20237;-76
2021/06/01 12:33:09;;;;;;;2.40;1.80;;;25.60;18.80;;;;;;10424688;28;20627;-77
2021/06/01 12:43:41;;;;;;;2.00;1.60;;;25.70;17.80;;;;;;10430251;28;20225;-76
2021/06/01 13:05:47;;;;;;;1.70;1.60;;;25.70;17.20;;;;;;10428537;28;20304;-77
2021/06/01 13:21:41;;;;;;;2.40;1.67;;;25.80;16.80;;;;;;10431610;28;20228;-76
2021/06/01 13:32:26;;;;;;;1.57;1.47;;;25.80;16.60;;;;;;10424966;28;20244;-81
2021/06/01 13:37:59;;;;;;;1.60;1.50;;;25.70;15.60;;;;;;10434252;28;20229;-82
2021/06/01 13:59:11;;;;;;;1.50;1.40;;;26.10;15.80;;;;;;10428961;28;20319;-82
2021/06/01 14:09:45;;;;;;;1.37;1.30;;;26.10;15.50;;;;;;10429383;28;20224;-82
2021/06/01 14:36:43;;;;;;;1.80;1.70;;;26.10;15.60;;;;;;10419875;28;20949;-82
2021/06/01 15:47:40;;;;;;;2.03;1.90;;;26.10;15.30;;;;;;10432060;28;20229;-83
2021/06/01 16:13:41;;;;;;;1.70;1.60;;;26.00;15.40;;;;;;10426131;28;20678;-77
2021/06/01 16:29:46;;;;;;;1.77;1.67;;;26.00;15.10;;;;;;10425987;28;20227;-77
2021/06/01 17:07:21;;;;;;;1.83;1.73;;;26.00;15.60;;;;;;10422143;28;20229;-78
2021/06/01 17:12:27;;;;;;;2.13;1.93;;;26.00;15.20;;;;;;10423399;28;20242;-77
2021/06/01 17:17:34;;;;;;;1.73;1.63;;;26.00;15.70;;;;;;10422127;28;20233;-77
2021/06/01 17:22:53;;;;;;;1.90;1.80;;;25.90;15.50;;;;;;10418530;28;20259;-77
2021/06/01 17:38:40;;;;;;;2.10;1.80;;;26.00;15.60;;;;;;10423128;28;20250;-78
2021/06/01 17:43:43;;;;;;;2.33;1.90;;;26.00;15.40;;;;;;10427202;28;20239;-78
2021/06/01 17:48:54;;;;;;;2.00;1.90;;;25.90;15.60;;;;;;10427721;28;20972;-77
2021/06/01 17:54:00;;;;;;;3.63;2.40;;;25.90;15.70;;;;;;10425489;28;20331;-78
2021/06/01 17:59:03;;;;;;;2.20;2.00;;;25.80;15.50;;;;;;10422716;28;20228;-78
2021/06/01 18:04:11;;;;;;;2.37;2.23;;;25.80;15.70;;;;;;10424250;28;20983;-76
2021/06/01 18:09:26;;;;;;;2.70;2.27;;;25.80;15.50;;;;;;10433024;28;20229;-76
2021/06/01 18:36:31;;;;;;;3.70;2.03;;;25.50;16.60;;;;;;10418550;28;20220;-74
2021/06/01 19:24:38;;;;;;;2.63;2.50;;;24.70;17.60;;;;;;10433672;28;21098;-82
2021/06/01 19:42:18;;;;;;;2.70;2.40;;;24.60;17.60;;;;;;10430403;28;20731;-78
2021/06/01 19:51:32;;;;;;;2.43;2.23;;;24.10;17.90;;;;;;10420135;28;20236;-76
2021/06/01 19:56:37;;;;;;;4.67;2.43;;;24.00;17.90;;;;;;10415928;28;20228;-76
2021/06/01 20:01:41;;;;;;;2.27;2.17;;;23.90;18.40;;;;;;10423360;28;20312;-76
2021/06/01 20:06:45;;;;;;;2.40;2.20;;;23.70;18.40;;;;;;10421501;28;20654;-77
2021/06/01 20:11:48;;;;;;;1.93;1.83;;;23.50;18.50;;;;;;10424270;28;20759;-76
2021/06/01 20:16:52;;;;;;;2.30;2.10;;;23.30;18.50;;;;;;10426096;28;20312;-76
2021/06/01 20:21:57;;;;;;;2.27;2.07;;;23.20;19.00;;;;;;10418518;28;20230;-76
2021/06/01 20:27:01;;;;;;;2.60;2.40;;;23.00;18.80;;;;;;10414373;28;20308;-77
2021/06/01 20:37:27;;;;;;;2.50;2.30;;;22.70;19.50;;;;;;10425578;28;20727;-76
2021/06/01 20:42:30;;;;;;;2.87;2.63;;;22.30;19.20;;;;;;10428400;28;20702;-76
2021/06/01 20:47:34;;;;;;;3.60;3.07;;;21.80;19.30;;;;;;10424600;28;20852;-76
2021/06/01 20:52:37;;;;;;;3.00;2.80;;;21.40;20.00;;;;;;10427890;28;20233;-76
2021/06/01 20:57:44;;;;;;;3.80;3.50;;;21.10;20.00;;;;;;10424802;28;20225;-76
2021/06/01 21:02:49;;;;;;;3.40;3.10;;;20.90;20.60;;;;;;10424839;28;20222;-76
2021/06/01 21:07:52;;;;;;;4.53;4.23;;;20.70;20.90;;;;;;10428460;28;20596;-76
2021/06/01 21:12:56;;;;;;;4.10;3.63;;;20.60;20.60;;;;;;10426877;28;20281;-76
2021/06/01 21:18:01;;;;;;;3.30;3.00;;;20.50;20.90;;;;;;10432228;28;20236;-76
2021/06/01 21:23:04;;;;;;;3.73;3.30;;;20.40;21.20;;;;;;10422762;28;20229;-76
2021/06/01 21:28:08;;;;;;;3.57;3.27;;;20.40;21.20;;;;;;10427322;28;20282;-76
2021/06/01 21:33:17;;;;;;;3.70;3.33;;;20.30;21.20;;;;;;10416750;28;20262;-76
2021/06/01 21:38:25;;;;;;;4.70;3.93;;;20.20;21.90;;;;;;10422506;28;20307;-76
2021/06/01 21:43:30;;;;;;;4.83;4.43;;;20.20;21.80;;;;;;10418341;28;20723;-76
2021/06/01 21:48:40;;;;;;;6.10;5.50;;;20.10;21.70;;;;;;10424888;28;20236;-76
2021/06/01 21:53:44;;;;;;;6.03;5.40;;;20.00;22.20;;;;;;10420045;28;20761;-76
2021/06/01 21:58:51;;;;;;;6.13;5.20;;;19.90;21.60;;;;;;10419479;28;20320;-76
2021/06/01 22:03:55;;;;;;;5.57;5.07;;;19.80;21.70;;;;;;10423103;28;20598;-76
2021/06/01 22:08:59;;;;;;;4.87;4.47;;;19.80;22.20;;;;;;10421502;28;20225;-76
2021/06/01 22:14:02;;;;;;;4.53;4.17;;;19.70;21.80;;;;;;10417643;28;20904;-76
2021/06/01 22:19:08;;;;;;;4.30;3.90;;;19.60;21.90;;;;;;10423535;28;20249;-76
2021/06/01 22:24:12;;;;;;;5.30;3.90;;;19.50;22.50;;;;;;10419735;28;20316;-76
2021/06/01 22:29:15;;;;;;;3.87;3.50;;;19.50;22.20;;;;;;10422907;28;20320;-76
2021/06/01 22:34:20;;;;;;;3.90;3.60;;;19.40;22.00;;;;;;10422543;28;20240;-76
2021/06/01 22:39:24;;;;;;;4.50;4.10;;;19.30;22.50;;;;;;10425461;28;20774;-76
2021/06/01 22:44:28;;;;;;;4.23;3.53;;;19.30;22.30;;;;;;10419827;28;21094;-76
2021/06/01 22:49:33;;;;;;;4.17;3.37;;;19.30;22.30;;;;;;10420819;28;20272;-76
2021/06/01 22:54:35;;;;;;;3.53;3.23;;;19.20;22.70;;;;;;10427387;28;20233;-76
2021/06/01 22:59:46;;;;;;;4.43;3.77;;;19.10;22.40;;;;;;10427891;28;20236;-76
2021/06/01 23:04:52;;;;;;;3.50;3.20;;;19.10;24.00;;;;;;10423827;28;20316;-76
2021/06/01 23:09:56;;;;;;;3.50;3.20;;;19.00;23.10;;;;;;10428590;28;20221;-75
2021/06/01 23:15:01;;;;;;;3.50;3.10;;;18.90;22.80;;;;;;10424252;28;20235;-75
2021/06/01 23:20:10;;;;;;;4.30;3.90;;;18.90;22.90;;;;;;10428835;28;20224;-76
2021/06/01 23:25:13;;;;;;;3.50;3.20;;;18.80;23.60;;;;;;10426376;28;20308;-76
2021/06/01 23:30:16;;;;;;;3.60;3.30;;;18.70;23.00;;;;;;10428249;28;20235;-75
2021/06/01 23:35:21;;;;;;;3.73;3.43;;;18.60;23.10;;;;;;10424099;28;20235;-76
2021/06/01 23:40:23;;;;;;;3.67;3.37;;;18.60;23.40;;;;;;10427214;28;20328;-75
2021/06/01 23:45:31;;;;;;;3.20;2.90;;;18.50;23.20;;;;;;10423733;28;20308;-75
2021/06/01 23:50:35;;;;;;;3.00;2.70;;;18.30;23.10;;;;;;10427957;28;20271;-76
2021/06/01 23:55:38;;;;;;;3.23;3.00;;;18.20;23.40;;;;;;10420063;28;20660;-75
